Data for 01/12/2007

Time Sea-Level Adjusted Pressure Absolute Pressure Temperature Relative Humidity Dew Point   
(mb) (inHg) (mb) (inHg) (C) (F) (%) (C) (F)
00:05 1021 30.15 850 25.1 -25.3 -13.5 71 -29.1 -20.3
00:10 1021 30.15 850 25.1 -25.5 -13.9 71 -29.4 -20.8
00:15 1021 30.15 850 25.1 -25.7 -14.2 72 -29.4 -20.9
00:20 1021 30.15 850 25.1 -25.7 -14.2 71 -29.5 -21
00:25 1021 30.15 850 25.1 -25.8 -14.5 72 -29.5 -21.1
00:30 1021 30.15 850 25.1 -25.8 -14.4 73 -29.3 -20.8
00:35 1021 30.15 850 25.1 -25.2 -13.4 71 -29 -20.2
00:40 1021 30.15 850 25.1 -25 -12.9 70 -28.9 -20
00:45 1021 30.15 850 25.1 -25 -12.9 69 -29.1 -20.4
00:50 1021 30.15 850 25.1 -24.8 -12.7 69 -29 -20.1
00:55 1021 30.15 850 25.1 -25 -13.1 70 -29.1 -20.4
01:00 1021 30.15 850 25.1 -25.2 -13.4 69 -29.3 -20.8
01:05 1021 30.15 850 25.1 -25.4 -13.6 69 -29.5 -21
01:10 1021 30.15 850 25.1 -25.7 -14.2 70 -29.6 -21.2
01:15 1021 30.15 850 25.1 -25.6 -14.2 72 -29.3 -20.7
01:20 1021 30.15 850 25.1 -25.5 -13.9 72 -29.2 -20.5
01:25 1021 30.15 850 25.1 -25.6 -14.1 71 -29.5 -21
01:30 1021 30.15 850 25.1 -25.8 -14.5 72 -29.6 -21.2
01:35 1021 30.15 850 25.1 -25.8 -14.5 71 -29.6 -21.3
01:40 1021 30.15 850 25.1 -25.9 -14.7 71 -29.8 -21.6
01:45 1021 30.15 850 25.1 -26 -14.7 72 -29.6 -21.3
01:50 1021 30.15 850 25.1 -26 -14.8 72 -29.7 -21.4
01:55 1021 30.15 850 25.1 -25.8 -14.4 71 -29.6 -21.2
02:00 1021 30.15 850 25.1 -25.6 -14.1 71 -29.5 -21
02:05 1021 30.15 851 25.13 -25.5 -13.9 71 -29.3 -20.8
02:10 1021 30.15 851 25.13 -25.5 -13.8 71 -29.2 -20.6
02:15 1021 30.15 851 25.13 -25.3 -13.5 71 -29.1 -20.4
02:20 1021 30.15 851 25.13 -25.2 -13.3 71 -29 -20.2
02:25 1021 30.15 851 25.13 -25.5 -13.9 73 -29.1 -20.3
02:30 1021 30.15 851 25.13 -25.4 -13.8 71 -29.3 -20.7
02:35 1021 30.15 851 25.13 -25.5 -13.8 70 -29.5 -21.1
02:40 1021 30.15 851 25.13 -25.7 -14.3 71 -29.6 -21.3
02:45 1022 30.18 851 25.13 -25.8 -14.5 71 -29.6 -21.2
02:50 1022 30.18 851 25.13 -25.8 -14.4 70 -29.7 -21.5
02:55 1022 30.18 851 25.13 -25.9 -14.7 70 -29.8 -21.7
03:00 1022 30.18 851 25.13 -26 -14.8 71 -29.8 -21.7
03:05 1022 30.18 851 25.13 -25.9 -14.6 70 -29.8 -21.6
03:10 1022 30.18 851 25.13 -25.8 -14.5 70 -29.8 -21.6
03:15 1022 30.18 851 25.13 -25.8 -14.4 70 -29.8 -21.6
03:20 1021 30.15 851 25.13 -25.9 -14.5 71 -29.7 -21.5
03:25 1021 30.15 851 25.13 -25.7 -14.3 71 -29.6 -21.3
03:30 1021 30.15 851 25.13 -25.5 -14 70 -29.5 -21.1
03:35 1021 30.15 851 25.13 -25.2 -13.3 69 -29.3 -20.7
03:40 1021 30.15 851 25.13 -24.9 -12.8 67 -29.3 -20.7
03:45 1021 30.15 851 25.13 -25.2 -13.3 69 -29.3 -20.8
03:50 1021 30.15 851 25.13 -25.4 -13.8 69 -29.5 -21.2
03:55 1021 30.15 851 25.13 -25.5 -14 70 -29.6 -21.2
04:00 1021 30.15 851 25.13 -25.7 -14.2 70 -29.7 -21.4
04:05 1021 30.15 851 25.13 -25.8 -14.5 71 -29.7 -21.5
04:10 1021 30.15 851 25.13 -25.8 -14.4 71 -29.6 -21.3
04:15 1021 30.15 851 25.13 -25.6 -14.1 70 -29.6 -21.2
04:20 1021 30.15 851 25.13 -25.6 -14 69 -29.7 -21.5
04:25 1021 30.15 851 25.13 -25.9 -14.7 69 -30.1 -22.1
04:30 1021 30.15 851 25.13 -26 -14.8 67 -30.4 -22.7
04:35 1021 30.15 851 25.13 -25.8 -14.5 67 -30.3 -22.5
04:40 1021 30.15 851 25.13 -26.1 -14.9 68 -30.3 -22.5
04:45 1021 30.15 851 25.13 -25.9 -14.6 70 -29.8 -21.7
04:50 1021 30.15 851 25.13 -25.7 -14.2 68 -29.9 -21.9
04:55 1021 30.15 851 25.13 -26.3 -15.4 68 -30.6 -23
05:00 1021 30.15 851 25.13 -26.3 -15.4 69 -30.5 -22.8
05:05 1021 30.15 851 25.13 -26.4 -15.6 71 -30.3 -22.5
05:10 1021 30.15 851 25.13 -26.2 -15.1 71 -30 -22.1
05:15 1021 30.15 851 25.13 -26 -14.7 70 -29.9 -21.8
05:20 1022 30.18 851 25.13 -25.4 -13.8 69 -29.5 -21.2
05:25 1022 30.18 851 25.13 -25 -13.1 68 -29.3 -20.7
05:30 1021 30.15 851 25.13 -24.8 -12.6 67 -29.3 -20.7
05:35 1022 30.18 851 25.13 -24.7 -12.5 67 -29.3 -20.7
05:40 1021 30.15 851 25.13 -25.1 -13.2 68 -29.4 -20.9
05:45 1022 30.18 851 25.13 -25.5 -13.8 69 -29.6 -21.3
05:50 1022 30.18 851 25.13 -26 -14.8 70 -30 -21.9
05:55 1022 30.18 851 25.13 -26.1 -15 70 -30.1 -22.1
06:00 1022 30.18 851 25.13 -26.1 -14.9 71 -29.9 -21.9
06:05 1022 30.18 851 25.13 -26 -14.7 71 -29.8 -21.7
06:10 1022 30.18 851 25.13 -25.9 -14.5 71 -29.7 -21.5
06:15 1022 30.18 851 25.13 -25.9 -14.6 71 -29.7 -21.4
06:20 1022 30.18 851 25.13 -26.3 -15.3 72 -29.9 -21.8
06:25 1022 30.18 851 25.13 -26.7 -16.1 73 -30.1 -22.3
06:30 1022 30.18 851 25.13 -27 -16.6 73 -30.4 -22.8
06:35 1022 30.18 851 25.13 -27.1 -16.8 72 -30.7 -23.2
06:40 1022 30.18 851 25.13 -27 -16.7 72 -30.6 -23.2
06:45 1022 30.18 851 25.13 -26.9 -16.4 72 -30.4 -22.8
06:50 1022 30.18 851 25.13 -26.8 -16.2 72 -30.4 -22.8
06:55 1022 30.18 851 25.13 -27 -16.6 73 -30.5 -22.9
07:00 1022 30.18 851 25.13 -26.9 -16.5 73 -30.4 -22.7
07:05 1022 30.18 851 25.13 -26.7 -16 73 -30.2 -22.4
07:10 1022 30.18 851 25.13 -26.4 -15.5 71 -30.1 -22.2
07:15 1022 30.18 851 25.13 -26.2 -15.2 71 -30 -22
07:20 1022 30.18 851 25.13 -26.1 -15 71 -30 -22
07:25 1022 30.18 851 25.13 -26 -14.9 71 -29.9 -21.8
07:30 1022 30.18 851 25.13 -26 -14.8 71 -29.9 -21.7
07:35 1022 30.18 852 25.16 -26 -14.8 71 -29.9 -21.8
07:40 1022 30.18 852 25.16 -26.3 -15.3 71 -30 -22
07:45 1022 30.18 852 25.16 -26.2 -15.1 73 -29.7 -21.4
07:50 1022 30.18 852 25.16 -26 -14.9 71 -29.8 -21.6
07:55 1022 30.18 852 25.16 -26.5 -15.6 73 -30 -22
08:00 1022 30.18 851 25.13 -26.3 -15.3 71 -30.1 -22.2
08:05 1022 30.18 852 25.16 -26.3 -15.4 72 -30 -21.9
08:10 1022 30.18 852 25.16 -26.2 -15.1 71 -30 -22
08:15 1022 30.18 852 25.16 -26.3 -15.4 74 -29.7 -21.5
08:20 1022 30.18 852 25.16 -26.1 -14.9 71 -29.9 -21.8
08:25 1022 30.18 852 25.16 -26.2 -15.2 70 -30.2 -22.3
08:30 1022 30.18 852 25.16 -26 -14.7 69 -30.1 -22.2
08:35 1022 30.18 852 25.16 -25.8 -14.4 68 -30 -22
08:40 1022 30.18 852 25.16 -25.4 -13.7 67 -29.8 -21.6
08:45 1022 30.18 852 25.16 -25.1 -13.2 67 -29.6 -21.3
08:50 1022 30.18 852 25.16 -24.9 -12.8 66 -29.6 -21.3
08:55 1022 30.18 852 25.16 -25 -13.1 66 -29.7 -21.4
09:00 1023 30.21 852 25.16 -25 -13 67 -29.5 -21
09:05 1023 30.21 852 25.16 -25 -12.9 67 -29.5 -21.1
09:10 1023 30.21 852 25.16 -24.9 -12.8 66 -29.6 -21.2
09:15 1023 30.21 852 25.16 -25 -13.1 66 -29.6 -21.3
09:20 1023 30.21 852 25.16 -25 -13 67 -29.5 -21.1
09:25 1023 30.21 852 25.16 -24.5 -12 65 -29.3 -20.7
09:30 1023 30.21 852 25.16 -23.4 -10.1 61 -29 -20.1
09:35 1023 30.21 852 25.16 -23 -9.4 62 -28.4 -19.1
09:40 1023 30.21 852 25.16 -22.7 -8.9 60 -28.4 -19.1
09:45 1023 30.21 852 25.16 -22.9 -9.2 62 -28.4 -19.1
09:50 1023 30.21 852 25.16 -22.4 -8.2 59 -28.3 -18.9
09:55 1023 30.21 852 25.16 -22.6 -8.6 61 -28.2 -18.8
10:00 1023 30.21 852 25.16 -22.3 -8.1 59 -28.3 -19
10:05 1023 30.21 852 25.16 -21.8 -7.2 58 -28 -18.4
10:10 1023 30.21 852 25.16 -21.4 -6.5 57 -27.8 -18
10:15 1023 30.21 852 25.16 -21.2 -6.2 57 -27.6 -17.7
10:20 1023 30.21 852 25.16 -20.9 -5.7 59 -27 -16.7
10:25 1023 30.21 852 25.16 -20 -3.9 55 -26.8 -16.3
10:30 1023 30.21 852 25.16 -19.4 -2.9 51 -27.3 -17.1
10:35 1023 30.21 852 25.16 -19.7 -3.4 52 -27.1 -16.8
10:40 1023 30.21 852 25.16 -19.5 -3 50 -27.5 -17.5
10:45 1023 30.21 852 25.16 -19.3 -2.8 51 -27.2 -16.9
10:50 1023 30.21 852 25.16 -18.8 -1.8 50 -26.8 -16.3
10:55 1023 30.21 852 25.16 -18.5 -1.3 51 -26.3 -15.3
11:00 1023 30.21 852 25.16 -18.4 -1.2 50 -26.4 -15.5
11:05 1023 30.21 852 25.16 -18.8 -1.9 51 -26.7 -16
11:10 1023 30.21 852 25.16 -18.7 -1.6 50 -26.8 -16.3
11:15 1023 30.21 852 25.16 -18.5 -1.3 48 -27.1 -16.7
11:20 1023 30.21 852 25.16 -18.9 -2 48 -27.4 -17.4
11:25 1023 30.21 852 25.16 -19.1 -2.4 48 -27.5 -17.6
11:30 1023 30.21 852 25.16 -19.3 -2.8 49 -27.5 -17.5
11:35 1023 30.21 852 25.16 -19.7 -3.4 51 -27.5 -17.4
11:40 1022 30.18 852 25.16 -19.5 -3.1 51 -27.2 -16.9
11:45 1022 30.18 852 25.16 -19.7 -3.4 51 -27.5 -17.5
11:50 1022 30.18 851 25.13 -19.5 -3 51 -27.2 -16.9
11:55 1022 30.18 851 25.13 -19.3 -2.7 53 -26.6 -15.9
12:00 1022 30.18 851 25.13 -18.7 -1.7 53 -26.1 -15
12:05 1022 30.18 851 25.13 -18.1 -0.6 51 -26 -14.7
12:10 1022 30.18 851 25.13 -17.7 0.2 48 -26.2 -15.2
12:15 1022 30.18 851 25.13 -17.3 0.9 48 -25.7 -14.3
12:20 1022 30.18 851 25.13 -17.5 0.6 49 -25.9 -14.6
12:25 1022 30.18 851 25.13 -17.5 0.6 49 -25.9 -14.6
12:30 1022 30.18 851 25.13 -17.5 0.6 51 -25.4 -13.8
12:35 1022 30.18 851 25.13 -17.2 1 47 -26 -14.7
12:40 1022 30.18 851 25.13 -17.2 1 48 -25.7 -14.3
12:45 1022 30.18 851 25.13 -17.2 1 48 -25.9 -14.6
12:50 1022 30.18 851 25.13 -17.2 1 47 -26 -14.8
12:55 1022 30.18 851 25.13 -17.3 0.8 49 -25.6 -14.1
13:00 1022 30.18 851 25.13 -17.3 0.9 47 -26 -14.7
13:05 1021 30.15 851 25.13 -17.8 0.1 50 -25.8 -14.4
13:10 1021 30.15 851 25.13 -18 -0.4 50 -26.2 -15.1
13:15 1021 30.15 850 25.1 -18.4 -1 51 -26.2 -15.1
13:20 1021 30.15 850 25.1 -18.5 -1.4 53 -25.9 -14.5
13:25 1021 30.15 850 25.1 -18.5 -1.4 53 -26 -14.7
13:30 1021 30.15 850 25.1 -18.2 -0.7 50 -26.1 -15.1
13:35 1021 30.15 850 25.1 -18.5 -1.4 53 -25.9 -14.7
13:40 1021 30.15 850 25.1 -18.1 -0.7 54 -25.3 -13.6
13:45 1021 30.15 850 25.1 -18.2 -0.7 51 -25.9 -14.6
13:50 1021 30.15 850 25.1 -18 -0.4 51 -25.8 -14.5
13:55 1021 30.15 850 25.1 -17.7 0.1 50 -25.9 -14.7
14:00 1021 30.15 850 25.1 -17.6 0.4 49 -25.8 -14.4
14:05 1021 30.15 850 25.1 -17.1 1.2 45 -26.3 -15.4
14:10 1021 30.15 850 25.1 -17.2 1.1 46 -26.3 -15.3
14:15 1021 30.15 850 25.1 -17.4 0.7 47 -26.2 -15.2
14:20 1021 30.15 850 25.1 -16.7 1.9 44 -26.4 -15.5
14:25 1021 30.15 850 25.1 -17.4 0.7 43 -27.2 -17
14:30 1021 30.15 850 25.1 -18.1 -0.5 47 -26.8 -16.3
14:35 1021 30.15 850 25.1 -17.9 -0.2 46 -26.9 -16.5
14:40 1021 30.15 850 25.1 -18.6 -1.4 47 -27.3 -17.1
14:45 1021 30.15 850 25.1 -19 -2.1 48 -27.5 -17.4
14:50 1021 30.15 850 25.1 -19.3 -2.8 48 -27.8 -18.1
14:55 1021 30.15 850 25.1 -19.1 -2.3 50 -27.1 -16.8
15:00 1021 30.15 850 25.1 -18.6 -1.4 47 -27.2 -17
15:05 1021 30.15 850 25.1 -18.4 -1.2 48 -26.8 -16.3
15:10 1021 30.15 850 25.1 -18 -0.4 47 -26.7 -16.1
15:15 1021 30.15 850 25.1 -17.9 -0.2 46 -26.8 -16.3
15:20 1021 30.15 850 25.1 -17.4 0.7 46 -26.4 -15.6
15:25 1021 30.15 850 25.1 -17.5 0.4 47 -26.3 -15.3
15:30 1021 30.15 850 25.1 -16.6 2 44 -26.2 -15.1
15:35 1021 30.15 850 25.1 -16.8 1.7 44 -26.3 -15.3
15:40 1021 30.15 850 25.1 -17.7 0.2 49 -26.1 -14.9
15:45 1021 30.15 850 25.1 -16.9 1.6 47 -25.8 -14.4
15:50 1021 30.15 850 25.1 -17.1 1.2 47 -25.9 -14.6
15:55 1021 30.15 850 25.1 -17.2 1.1 48 -25.8 -14.5
16:00 1021 30.15 850 25.1 -17.6 0.3 50 -25.7 -14.2
16:05 1021 30.15 850 25.1 -17.6 0.4 52 -25.3 -13.5
16:10 1021 30.15 850 25.1 -17.9 -0.2 51 -25.7 -14.3
16:15 1021 30.15 850 25.1 -18.1 -0.6 51 -25.9 -14.6
16:20 1021 30.15 850 25.1 -18.3 -0.9 52 -25.9 -14.7
16:25 1021 30.15 850 25.1 -18.7 -1.7 52 -26.2 -15.2
16:30 1021 30.15 850 25.1 -19 -2.1 52 -26.5 -15.7
16:35 1021 30.15 851 25.13 -19.4 -2.9 55 -26.3 -15.3
16:40 1021 30.15 851 25.13 -19.3 -2.7 56 -25.9 -14.7
16:45 1021 30.15 851 25.13 -18.9 -2.1 54 -26 -14.9
16:50 1021 30.15 851 25.13 -19.7 -3.5 57 -26.3 -15.3
16:55 1022 30.18 851 25.13 -20 -3.9 58 -26.2 -15.1
17:00 1022 30.18 851 25.13 -20 -4.1 57 -26.5 -15.7
17:05 1022 30.18 851 25.13 -20 -4 58 -26.2 -15.2
17:10 1022 30.18 851 25.13 -20 -4.1 58 -26.4 -15.5
17:15 1022 30.18 851 25.13 -20.3 -4.5 60 -26.1 -15.1
17:20 1022 30.18 851 25.13 -20.5 -4.8 60 -26.3 -15.3
17:25 1022 30.18 851 25.13 -20.6 -5 60 -26.4 -15.6
17:30 1022 30.18 851 25.13 -20.3 -4.6 63 -25.7 -14.3
17:35 1022 30.18 851 25.13 -20.2 -4.3 63 -25.5 -13.8
17:40 1022 30.18 851 25.13 -20.2 -4.4 62 -25.8 -14.4
17:45 1022 30.18 851 25.13 -20.2 -4.4 64 -25.5 -13.9
17:50 1022 30.18 851 25.13 -20.9 -5.6 66 -25.7 -14.3
17:55 1022 30.18 851 25.13 -21.4 -6.5 68 -25.8 -14.4
18:00 1022 30.18 851 25.13 -21.3 -6.4 67 -25.9 -14.7
18:05 1022 30.18 851 25.13 -22.1 -7.8 72 -25.8 -14.5
18:10 1022 30.18 851 25.13 -21.3 -6.3 70 -25.5 -13.8
18:15 1022 30.18 851 25.13 -20.8 -5.5 66 -25.7 -14.2
18:20 1022 30.18 851 25.13 -21.3 -6.3 69 -25.6 -14.1
18:25 1022 30.18 851 25.13 -22 -7.5 72 -25.7 -14.3
18:30 1022 30.18 851 25.13 -22.8 -9.1 75 -26.1 -15.1
18:35 1022 30.18 851 25.13 -23 -9.5 75 -26.2 -15.2
18:40 1022 30.18 851 25.13 -22.8 -9 76 -25.9 -14.6
18:45 1022 30.18 851 25.13 -22.6 -8.7 76 -25.7 -14.3
18:50 1022 30.18 851 25.13 -22.7 -8.8 72 -26.4 -15.5
18:55 1022 30.18 851 25.13 -23 -9.3 76 -26.1 -15
19:00 1022 30.18 851 25.13 -23 -9.4 73 -26.5 -15.7
19:05 1022 30.18 851 25.13 -22.6 -8.7 68 -27 -16.7
19:10 1022 30.18 851 25.13 -22.7 -8.8 72 -26.4 -15.5
19:15 1022 30.18 851 25.13 -22.3 -8.1 70 -26.4 -15.5
19:20 1022 30.18 851 25.13 -22.4 -8.4 69 -26.6 -15.9
19:25 1022 30.18 851 25.13 -22.4 -8.4 69 -26.7 -16.1
19:30 1022 30.18 851 25.13 -22.5 -8.6 71 -26.5 -15.6
19:35 1022 30.18 851 25.13 -22.2 -8 69 -26.4 -15.6
19:40 1022 30.18 851 25.13 -22.6 -8.6 73 -26.2 -15.2
19:45 1022 30.18 851 25.13 -22.8 -9.1 72 -26.5 -15.8
19:50 1022 30.18 851 25.13 -23.4 -10.2 75 -26.7 -16.1
19:55 1022 30.18 851 25.13 -23.5 -10.4 73 -27.1 -16.7
20:00 1022 30.18 851 25.13 -23.8 -10.8 74 -27.1 -16.9
20:05 1022 30.18 851 25.13 -23.6 -10.6 73 -27.1 -16.9
20:10 1022 30.18 851 25.13 -23.5 -10.4 74 -26.9 -16.4
20:15 1022 30.18 851 25.13 -23.3 -10 74 -26.8 -16.2
20:20 1022 30.18 851 25.13 -23.4 -10.1 74 -26.8 -16.3
20:25 1022 30.18 851 25.13 -23.5 -10.3 74 -26.9 -16.5
20:30 1022 30.18 851 25.13 -23.6 -10.4 75 -26.9 -16.4
20:35 1022 30.18 851 25.13 -23.7 -10.6 75 -27 -16.6
20:40 1022 30.18 851 25.13 -23.8 -10.8 76 -26.9 -16.5
20:45 1022 30.18 851 25.13 -23.7 -10.7 76 -26.8 -16.3
20:50 1022 30.18 851 25.13 -23.4 -10.1 75 -26.7 -16
20:55 1022 30.18 851 25.13 -23.2 -9.8 74 -26.6 -15.9
21:00 1022 30.18 851 25.13 -23.1 -9.6 74 -26.5 -15.7
21:05 1021 30.15 851 25.13 -23.1 -9.6 74 -26.5 -15.8
21:10 1022 30.18 851 25.13 -23 -9.3 74 -26.5 -15.6
21:15 1021 30.15 851 25.13 -22.9 -9.1 74 -26.3 -15.4
21:20 1022 30.18 851 25.13 -22.8 -9 73 -26.3 -15.4
21:25 1022 30.18 851 25.13 -22.9 -9.2 73 -26.5 -15.6
21:30 1022 30.18 851 25.13 -23 -9.4 74 -26.4 -15.6
21:35 1022 30.18 851 25.13 -22.8 -9 73 -26.4 -15.5
21:40 1022 30.18 851 25.13 -22.8 -9.1 73 -26.4 -15.6
21:45 1022 30.18 851 25.13 -22.7 -8.9 73 -26.3 -15.3
21:50 1022 30.18 851 25.13 -22.6 -8.6 73 -26.2 -15.1
21:55 1022 30.18 851 25.13 -22.4 -8.4 73 -26.1 -14.9
22:00 1022 30.18 851 25.13 -22.2 -7.9 72 -26 -14.8
22:05 1022 30.18 851 25.13 -22 -7.6 72 -25.8 -14.5
22:10 1022 30.18 851 25.13 -21.9 -7.4 71 -25.9 -14.6
22:15 1022 30.18 851 25.13 -22.1 -7.8 72 -25.9 -14.7
22:20 1022 30.18 851 25.13 -22 -7.6 71 -25.9 -14.6
22:25 1022 30.18 851 25.13 -21.8 -7.2 70 -25.9 -14.6
22:30 1022 30.18 851 25.13 -21.6 -6.9 69 -25.8 -14.4
22:35 1022 30.18 851 25.13 -21.6 -6.9 68 -26.1 -14.9
22:40 1022 30.18 851 25.13 -22.2 -8 71 -26.2 -15.1
22:45 1022 30.18 851 25.13 -22.6 -8.6 70 -26.6 -15.9
22:50 1022 30.18 851 25.13 -23.3 -10 73 -26.9 -16.5
22:55 1022 30.18 851 25.13 -23.2 -9.7 74 -26.5 -15.8
23:00 1022 30.18 851 25.13 -22.8 -9 71 -26.6 -15.9
23:05 1022 30.18 851 25.13 -22.8 -9 72 -26.5 -15.8
23:10 1022 30.18 851 25.13 -23.2 -9.8 72 -26.9 -16.5
23:15 1022 30.18 851 25.13 -23.7 -10.7 75 -27 -16.5
23:20 1022 30.18 851 25.13 -23.4 -10 73 -26.9 -16.4
23:25 1022 30.18 851 25.13 -23.4 -10.1 73 -26.9 -16.5
23:30 1022 30.18 851 25.13 -23.4 -10.2 74 -26.8 -16.2
23:35 1022 30.18 851 25.13 -23.3 -10 75 -26.7 -16
23:40 1022 30.18 851 25.13 -23 -9.5 74 -26.5 -15.7
23:45 1022 30.18 851 25.13 -22.9 -9.2 74 -26.4 -15.5
23:50 1022 30.18 851 25.13 -22.8 -9 73 -26.4 -15.5
23:55 1022 30.18 851 25.13 -22.7 -8.8 73 -26.2 -15.2
24:00 1021 30.15 851 25.13 -23 -9.5 74 -26.4 -15.6